sensor_id;sensor_type;location;lat;lon;timestamp;P1;durP1;ratioP1;P2;durP2;ratioP2
20298;SDS011;10308;42.688;23.256;2023-07-31T00:01:32;3.42;;;3.20;;
20298;SDS011;10308;42.688;23.256;2023-07-31T00:04:00;3.40;;;3.20;;
20298;SDS011;10308;42.688;23.256;2023-07-31T00:06:51;3.38;;;3.08;;
20298;SDS011;10308;42.688;23.256;2023-07-31T00:09:18;3.28;;;3.08;;
20298;SDS011;10308;42.688;23.256;2023-07-31T00:11:47;3.22;;;3.03;;
20298;SDS011;10308;42.688;23.256;2023-07-31T00:14:15;3.50;;;3.20;;
20298;SDS011;10308;42.688;23.256;2023-07-31T00:16:45;3.63;;;3.33;;
20298;SDS011;10308;42.688;23.256;2023-07-31T00:19:15;3.85;;;3.55;;
20298;SDS011;10308;42.688;23.256;2023-07-31T00:21:43;4.20;;;3.90;;
20298;SDS011;10308;42.688;23.256;2023-07-31T01:27:21;9.93;;;9.13;;
20298;SDS011;10308;42.688;23.256;2023-07-31T01:29:56;10.82;;;9.88;;
20298;SDS011;10308;42.688;23.256;2023-07-31T01:32:29;11.80;;;10.80;;
20298;SDS011;10308;42.688;23.256;2023-07-31T01:34:57;12.60;;;11.60;;
20298;SDS011;10308;42.688;23.256;2023-07-31T01:37:28;13.23;;;12.13;;
20298;SDS011;10308;42.688;23.256;2023-07-31T01:39:56;12.80;;;11.80;;
20298;SDS011;10308;42.688;23.256;2023-07-31T01:42:27;13.63;;;12.43;;
20298;SDS011;10308;42.688;23.256;2023-07-31T01:44:55;14.07;;;12.85;;
20298;SDS011;10308;42.688;23.256;2023-07-31T01:47:23;13.77;;;12.68;;
20298;SDS011;10308;42.688;23.256;2023-07-31T01:49:50;15.27;;;13.98;;
20298;SDS011;10308;42.688;23.256;2023-07-31T01:52:18;14.55;;;13.35;;
20298;SDS011;10308;42.688;23.256;2023-07-31T01:54:45;14.77;;;13.50;;
20298;SDS011;10308;42.688;23.256;2023-07-31T01:57:14;14.55;;;13.32;;
20298;SDS011;10308;42.688;23.256;2023-07-31T01:59:45;15.40;;;14.05;;
20298;SDS011;10308;42.688;23.256;2023-07-31T02:02:13;15.07;;;13.77;;
20298;SDS011;10308;42.688;23.256;2023-07-31T02:04:41;14.73;;;13.45;;
20298;SDS011;10308;42.688;23.256;2023-07-31T02:07:09;14.27;;;13.10;;
20298;SDS011;10308;42.688;23.256;2023-07-31T02:09:37;16.17;;;14.77;;
20298;SDS011;10308;42.688;23.256;2023-07-31T02:12:07;14.93;;;13.43;;
20298;SDS011;10308;42.688;23.256;2023-07-31T02:14:35;14.90;;;13.70;;
20298;SDS011;10308;42.688;23.256;2023-07-31T02:17:05;15.40;;;14.02;;
20298;SDS011;10308;42.688;23.256;2023-07-31T02:19:33;15.57;;;14.27;;
20298;SDS011;10308;42.688;23.256;2023-07-31T02:22:01;14.57;;;13.38;;
20298;SDS011;10308;42.688;23.256;2023-07-31T02:24:31;15.60;;;14.30;;
20298;SDS011;10308;42.688;23.256;2023-07-31T02:26:59;15.38;;;14.07;;
20298;SDS011;10308;42.688;23.256;2023-07-31T02:29:30;15.43;;;14.13;;
20298;SDS011;10308;42.688;23.256;2023-07-31T02:31:58;15.07;;;13.77;;
20298;SDS011;10308;42.688;23.256;2023-07-31T02:34:31;14.85;;;13.63;;
20298;SDS011;10308;42.688;23.256;2023-07-31T02:37:02;15.68;;;14.35;;
20298;SDS011;10308;42.688;23.256;2023-07-31T02:39:32;15.43;;;14.13;;
20298;SDS011;10308;42.688;23.256;2023-07-31T02:42:01;15.07;;;13.88;;
20298;SDS011;10308;42.688;23.256;2023-07-31T02:44:32;15.45;;;14.05;;
20298;SDS011;10308;42.688;23.256;2023-07-31T02:47:03;14.90;;;13.60;;
20298;SDS011;10308;42.688;23.256;2023-07-31T02:49:32;15.00;;;13.80;;
20298;SDS011;10308;42.688;23.256;2023-07-31T02:52:00;15.95;;;14.55;;
20298;SDS011;10308;42.688;23.256;2023-07-31T02:54:27;14.85;;;13.65;;
20298;SDS011;10308;42.688;23.256;2023-07-31T02:56:55;15.88;;;14.50;;
20298;SDS011;10308;42.688;23.256;2023-07-31T02:59:23;14.85;;;13.65;;
20298;SDS011;10308;42.688;23.256;2023-07-31T03:01:52;14.85;;;13.65;;
20298;SDS011;10308;42.688;23.256;2023-07-31T03:04:19;15.07;;;13.68;;
20298;SDS011;10308;42.688;23.256;2023-07-31T03:06:48;15.50;;;14.10;;
20298;SDS011;10308;42.688;23.256;2023-07-31T03:09:19;16.48;;;14.98;;
20298;SDS011;10308;42.688;23.256;2023-07-31T03:11:47;15.18;;;13.98;;
20298;SDS011;10308;42.688;23.256;2023-07-31T03:14:18;16.42;;;14.93;;
20298;SDS011;10308;42.688;23.256;2023-07-31T03:16:47;16.83;;;15.43;;
20298;SDS011;10308;42.688;23.256;2023-07-31T03:19:19;17.02;;;15.52;;
20298;SDS011;10308;42.688;23.256;2023-07-31T03:21:48;16.65;;;15.27;;
20298;SDS011;10308;42.688;23.256;2023-07-31T03:24:19;15.98;;;14.52;;
20298;SDS011;10308;42.688;23.256;2023-07-31T03:26:49;16.13;;;14.73;;
20298;SDS011;10308;42.688;23.256;2023-07-31T03:29:19;15.95;;;14.65;;
20298;SDS011;10308;42.688;23.256;2023-07-31T03:31:47;16.17;;;14.77;;
20298;SDS011;10308;42.688;23.256;2023-07-31T03:34:13;16.20;;;14.80;;
20298;SDS011;10308;42.688;23.256;2023-07-31T03:36:45;17.20;;;15.77;;
20298;SDS011;10308;42.688;23.256;2023-07-31T03:39:14;16.83;;;15.32;;
20298;SDS011;10308;42.688;23.256;2023-07-31T03:41:44;17.42;;;15.98;;
20298;SDS011;10308;42.688;23.256;2023-07-31T03:44:16;17.85;;;16.05;;
20298;SDS011;10308;42.688;23.256;2023-07-31T03:46:44;18.88;;;17.08;;
20298;SDS011;10308;42.688;23.256;2023-07-31T03:49:12;18.58;;;16.80;;
20298;SDS011;10308;42.688;23.256;2023-07-31T03:51:40;17.75;;;16.10;;
20298;SDS011;10308;42.688;23.256;2023-07-31T03:54:07;18.92;;;17.13;;
20298;SDS011;10308;42.688;23.256;2023-07-31T03:56:40;17.67;;;16.08;;
20298;SDS011;10308;42.688;23.256;2023-07-31T03:59:07;19.17;;;17.40;;
20298;SDS011;10308;42.688;23.256;2023-07-31T04:01:37;18.95;;;17.30;;
20298;SDS011;10308;42.688;23.256;2023-07-31T04:04:08;18.83;;;17.02;;
20298;SDS011;10308;42.688;23.256;2023-07-31T04:06:45;18.25;;;16.55;;
20298;SDS011;10308;42.688;23.256;2023-07-31T04:09:13;18.42;;;16.73;;
20298;SDS011;10308;42.688;23.256;2023-07-31T04:11:42;18.30;;;16.67;;
20298;SDS011;10308;42.688;23.256;2023-07-31T04:14:10;18.73;;;17.02;;
20298;SDS011;10308;42.688;23.256;2023-07-31T04:16:38;18.13;;;16.48;;
20298;SDS011;10308;42.688;23.256;2023-07-31T04:19:09;19.20;;;17.40;;
20298;SDS011;10308;42.688;23.256;2023-07-31T04:21:37;19.02;;;17.23;;
20298;SDS011;10308;42.688;23.256;2023-07-31T04:24:04;19.88;;;17.98;;
20298;SDS011;10308;42.688;23.256;2023-07-31T04:26:34;20.50;;;18.63;;
20298;SDS011;10308;42.688;23.256;2023-07-31T04:29:09;20.02;;;18.23;;
20298;SDS011;10308;42.688;23.256;2023-07-31T04:31:38;17.83;;;16.20;;
20298;SDS011;10308;42.688;23.256;2023-07-31T04:34:09;17.90;;;16.10;;
20298;SDS011;10308;42.688;23.256;2023-07-31T04:36:38;18.42;;;16.83;;
20298;SDS011;10308;42.688;23.256;2023-07-31T04:39:09;19.00;;;17.30;;
20298;SDS011;10308;42.688;23.256;2023-07-31T04:41:38;18.58;;;16.90;;
20298;SDS011;10308;42.688;23.256;2023-07-31T04:44:09;17.90;;;16.30;;
20298;SDS011;10308;42.688;23.256;2023-07-31T04:46:38;18.65;;;16.95;;
20298;SDS011;10308;42.688;23.256;2023-07-31T04:49:10;18.25;;;16.60;;
20298;SDS011;10308;42.688;23.256;2023-07-31T04:51:38;19.55;;;17.73;;
20298;SDS011;10308;42.688;23.256;2023-07-31T04:54:08;18.95;;;17.15;;
20298;SDS011;10308;42.688;23.256;2023-07-31T04:56:41;18.23;;;16.42;;
20298;SDS011;10308;42.688;23.256;2023-07-31T04:59:11;17.70;;;16.15;;
20298;SDS011;10308;42.688;23.256;2023-07-31T05:01:41;18.13;;;16.42;;
20298;SDS011;10308;42.688;23.256;2023-07-31T05:04:12;19.02;;;17.33;;
20298;SDS011;10308;42.688;23.256;2023-07-31T05:06:42;17.48;;;15.77;;
20298;SDS011;10308;42.688;23.256;2023-07-31T05:09:13;16.48;;;14.93;;
20298;SDS011;10308;42.688;23.256;2023-07-31T05:11:39;16.95;;;15.45;;
20298;SDS011;10308;42.688;23.256;2023-07-31T05:14:13;16.48;;;15.05;;
20298;SDS011;10308;42.688;23.256;2023-07-31T05:16:40;17.23;;;15.55;;
20298;SDS011;10308;42.688;23.256;2023-07-31T05:19:08;16.40;;;14.90;;
20298;SDS011;10308;42.688;23.256;2023-07-31T05:21:39;15.55;;;14.15;;
20298;SDS011;10308;42.688;23.256;2023-07-31T05:24:09;14.68;;;13.38;;
20298;SDS011;10308;42.688;23.256;2023-07-31T05:26:36;15.38;;;13.98;;
20298;SDS011;10308;42.688;23.256;2023-07-31T05:29:06;12.65;;;11.65;;
20298;SDS011;10308;42.688;23.256;2023-07-31T05:31:38;12.20;;;11.20;;
20298;SDS011;10308;42.688;23.256;2023-07-31T05:34:08;12.65;;;11.65;;
20298;SDS011;10308;42.688;23.256;2023-07-31T05:36:36;11.90;;;10.90;;
20298;SDS011;10308;42.688;23.256;2023-07-31T05:39:03;11.63;;;10.63;;
20298;SDS011;10308;42.688;23.256;2023-07-31T05:41:35;10.52;;;9.65;;
20298;SDS011;10308;42.688;23.256;2023-07-31T05:44:03;9.95;;;9.05;;
20298;SDS011;10308;42.688;23.256;2023-07-31T05:46:31;10.13;;;9.23;;
20298;SDS011;10308;42.688;23.256;2023-07-31T05:49:01;9.13;;;8.43;;
20298;SDS011;10308;42.688;23.256;2023-07-31T05:51:32;9.25;;;8.45;;
20298;SDS011;10308;42.688;23.256;2023-07-31T05:53:58;8.73;;;7.88;;
20298;SDS011;10308;42.688;23.256;2023-07-31T05:56:26;7.28;;;6.68;;
20298;SDS011;10308;42.688;23.256;2023-07-31T05:58:54;7.53;;;6.88;;
20298;SDS011;10308;42.688;23.256;2023-07-31T06:01:25;6.63;;;6.13;;
20298;SDS011;10308;42.688;23.256;2023-07-31T06:03:53;6.75;;;6.07;;
20298;SDS011;10308;42.688;23.256;2023-07-31T06:06:26;9.32;;;5.38;;
20298;SDS011;10308;42.688;23.256;2023-07-31T06:08:54;6.30;;;5.80;;
20298;SDS011;10308;42.688;23.256;2023-07-31T06:11:24;5.57;;;5.18;;
20298;SDS011;10308;42.688;23.256;2023-07-31T06:13:53;6.53;;;5.75;;
20298;SDS011;10308;42.688;23.256;2023-07-31T06:16:22;6.22;;;5.72;;
20298;SDS011;10308;42.688;23.256;2023-07-31T06:18:52;5.05;;;4.70;;
20298;SDS011;10308;42.688;23.256;2023-07-31T06:21:19;5.82;;;5.40;;
20298;SDS011;10308;42.688;23.256;2023-07-31T06:23:54;5.20;;;4.72;;
20298;SDS011;10308;42.688;23.256;2023-07-31T06:26:22;5.25;;;4.80;;
20298;SDS011;10308;42.688;23.256;2023-07-31T06:28:51;5.30;;;4.80;;
20298;SDS011;10308;42.688;23.256;2023-07-31T06:31:22;5.50;;;5.10;;
20298;SDS011;10308;42.688;23.256;2023-07-31T06:33:50;6.03;;;5.63;;
20298;SDS011;10308;42.688;23.256;2023-07-31T06:36:19;5.47;;;5.07;;
20298;SDS011;10308;42.688;23.256;2023-07-31T06:38:47;5.53;;;5.03;;
20298;SDS011;10308;42.688;23.256;2023-07-31T06:41:16;5.18;;;4.78;;
20298;SDS011;10308;42.688;23.256;2023-07-31T06:43:45;5.07;;;4.68;;
20298;SDS011;10308;42.688;23.256;2023-07-31T06:46:15;5.63;;;5.18;;
20298;SDS011;10308;42.688;23.256;2023-07-31T06:48:45;4.85;;;4.45;;
20298;SDS011;10308;42.688;23.256;2023-07-31T06:51:12;5.38;;;4.88;;
20298;SDS011;10308;42.688;23.256;2023-07-31T06:53:41;5.40;;;4.35;;
20298;SDS011;10308;42.688;23.256;2023-07-31T06:56:12;5.03;;;4.60;;
20298;SDS011;10308;42.688;23.256;2023-07-31T06:58:44;4.85;;;4.22;;
20298;SDS011;10308;42.688;23.256;2023-07-31T07:01:14;4.57;;;4.28;;
20298;SDS011;10308;42.688;23.256;2023-07-31T07:03:42;4.72;;;4.32;;
20298;SDS011;10308;42.688;23.256;2023-07-31T07:06:10;4.43;;;4.03;;
20298;SDS011;10308;42.688;23.256;2023-07-31T07:08:38;4.80;;;4.00;;
20298;SDS011;10308;42.688;23.256;2023-07-31T07:11:09;4.85;;;4.30;;
20298;SDS011;10308;42.688;23.256;2023-07-31T07:13:36;3.92;;;3.63;;
20298;SDS011;10308;42.688;23.256;2023-07-31T07:16:08;4.07;;;3.75;;
20298;SDS011;10308;42.688;23.256;2023-07-31T07:18:39;4.00;;;3.70;;
20298;SDS011;10308;42.688;23.256;2023-07-31T07:21:08;4.03;;;3.72;;
20298;SDS011;10308;42.688;23.256;2023-07-31T07:23:36;4.10;;;3.80;;
20298;SDS011;10308;42.688;23.256;2023-07-31T07:26:04;3.85;;;3.55;;
20298;SDS011;10308;42.688;23.256;2023-07-31T07:28:32;4.63;;;3.50;;
20298;SDS011;10308;42.688;23.256;2023-07-31T07:31:00;4.20;;;3.50;;
20298;SDS011;10308;42.688;23.256;2023-07-31T07:33:33;3.83;;;3.53;;
20298;SDS011;10308;42.688;23.256;2023-07-31T07:36:01;3.75;;;3.45;;
20298;SDS011;10308;42.688;23.256;2023-07-31T07:38:29;4.20;;;3.80;;
20298;SDS011;10308;42.688;23.256;2023-07-31T07:40:58;3.85;;;3.33;;
20298;SDS011;10308;42.688;23.256;2023-07-31T07:43:25;3.92;;;3.63;;
20298;SDS011;10308;42.688;23.256;2023-07-31T07:45:54;3.58;;;3.28;;
20298;SDS011;10308;42.688;23.256;2023-07-31T07:48:25;3.22;;;3.03;;
20298;SDS011;10308;42.688;23.256;2023-07-31T07:50:58;3.40;;;3.00;;
20298;SDS011;10308;42.688;23.256;2023-07-31T07:53:26;3.40;;;3.10;;
20298;SDS011;10308;42.688;23.256;2023-07-31T07:55:54;3.85;;;3.60;;
20298;SDS011;10308;42.688;23.256;2023-07-31T07:58:22;3.97;;;3.67;;
20298;SDS011;10308;42.688;23.256;2023-07-31T08:00:50;4.20;;;3.90;;
20298;SDS011;10308;42.688;23.256;2023-07-31T08:03:20;4.40;;;4.03;;
20298;SDS011;10308;42.688;23.256;2023-07-31T08:05:48;3.78;;;3.47;;
20298;SDS011;10308;42.688;23.256;2023-07-31T08:08:21;4.07;;;3.67;;
20298;SDS011;10308;42.688;23.256;2023-07-31T08:10:51;4.68;;;3.70;;
20298;SDS011;10308;42.688;23.256;2023-07-31T08:13:19;3.47;;;3.28;;
20298;SDS011;10308;42.688;23.256;2023-07-31T08:15:53;3.85;;;3.50;;
20298;SDS011;10308;42.688;23.256;2023-07-31T08:18:21;3.60;;;3.30;;
20298;SDS011;10308;42.688;23.256;2023-07-31T08:20:48;4.57;;;4.18;;
20298;SDS011;10308;42.688;23.256;2023-07-31T08:23:20;4.43;;;4.03;;
20298;SDS011;10308;42.688;23.256;2023-07-31T08:25:50;4.55;;;3.83;;
20298;SDS011;10308;42.688;23.256;2023-07-31T08:28:20;3.60;;;3.40;;
20298;SDS011;10308;42.688;23.256;2023-07-31T08:30:49;3.92;;;3.63;;
20298;SDS011;10308;42.688;23.256;2023-07-31T08:33:16;3.60;;;3.28;;
20298;SDS011;10308;42.688;23.256;2023-07-31T08:35:44;4.90;;;4.50;;
20298;SDS011;10308;42.688;23.256;2023-07-31T08:38:12;3.85;;;3.55;;
20298;SDS011;10308;42.688;23.256;2023-07-31T08:40:41;3.75;;;3.45;;
20298;SDS011;10308;42.688;23.256;2023-07-31T08:43:09;4.22;;;3.90;;
20298;SDS011;10308;42.688;23.256;2023-07-31T08:45:41;3.55;;;3.25;;
20298;SDS011;10308;42.688;23.256;2023-07-31T08:48:12;3.40;;;3.10;;
20298;SDS011;10308;42.688;23.256;2023-07-31T08:50:44;3.97;;;3.67;;
20298;SDS011;10308;42.688;23.256;2023-07-31T08:53:15;3.40;;;3.20;;
20298;SDS011;10308;42.688;23.256;2023-07-31T08:55:48;4.00;;;3.40;;
20298;SDS011;10308;42.688;23.256;2023-07-31T08:58:17;3.67;;;3.38;;
20298;SDS011;10308;42.688;23.256;2023-07-31T09:00:45;3.45;;;3.20;;
20298;SDS011;10308;42.688;23.256;2023-07-31T09:03:17;3.17;;;2.95;;
20298;SDS011;10308;42.688;23.256;2023-07-31T09:05:46;3.17;;;2.95;;
20298;SDS011;10308;42.688;23.256;2023-07-31T09:08:18;3.53;;;3.25;;
20298;SDS011;10308;42.688;23.256;2023-07-31T09:10:55;3.40;;;3.20;;
20298;SDS011;10308;42.688;23.256;2023-07-31T09:13:30;4.00;;;3.70;;
20298;SDS011;10308;42.688;23.256;2023-07-31T09:15:57;3.60;;;3.30;;
20298;SDS011;10308;42.688;23.256;2023-07-31T09:18:28;3.85;;;3.42;;
20298;SDS011;10308;42.688;23.256;2023-07-31T09:21:04;3.35;;;3.13;;
20298;SDS011;10308;42.688;23.256;2023-07-31T09:23:42;3.70;;;3.40;;
20298;SDS011;10308;42.688;23.256;2023-07-31T09:29:03;3.65;;;3.35;;
20298;SDS011;10308;42.688;23.256;2023-07-31T09:31:39;4.10;;;3.50;;
20298;SDS011;10308;42.688;23.256;2023-07-31T09:34:11;4.00;;;3.58;;
20298;SDS011;10308;42.688;23.256;2023-07-31T09:36:39;3.83;;;3.38;;
20298;SDS011;10308;42.688;23.256;2023-07-31T09:39:09;3.70;;;3.45;;
20298;SDS011;10308;42.688;23.256;2023-07-31T09:41:45;4.40;;;3.40;;
20298;SDS011;10308;42.688;23.256;2023-07-31T09:44:16;3.53;;;3.28;;
20298;SDS011;10308;42.688;23.256;2023-07-31T09:46:46;3.63;;;3.33;;
20298;SDS011;10308;42.688;23.256;2023-07-31T09:49:14;3.80;;;3.50;;
20298;SDS011;10308;42.688;23.256;2023-07-31T09:51:43;3.40;;;3.20;;
20298;SDS011;10308;42.688;23.256;2023-07-31T09:54:13;4.30;;;3.40;;
20298;SDS011;10308;42.688;23.256;2023-07-31T09:56:49;4.10;;;3.05;;
20298;SDS011;10308;42.688;23.256;2023-07-31T09:59:17;3.35;;;3.15;;
20298;SDS011;10308;42.688;23.256;2023-07-31T10:01:46;2.95;;;2.70;;
20298;SDS011;10308;42.688;23.256;2023-07-31T10:04:16;3.20;;;3.00;;
20298;SDS011;10308;42.688;23.256;2023-07-31T10:06:47;3.00;;;2.67;;
20298;SDS011;10308;42.688;23.256;2023-07-31T10:09:17;2.97;;;2.78;;
20298;SDS011;10308;42.688;23.256;2023-07-31T10:11:47;4.03;;;2.95;;
20298;SDS011;10308;42.688;23.256;2023-07-31T10:14:22;3.20;;;2.90;;
20298;SDS011;10308;42.688;23.256;2023-07-31T10:16:50;2.92;;;2.72;;
20298;SDS011;10308;42.688;23.256;2023-07-31T10:19:20;2.70;;;2.50;;
20298;SDS011;10308;42.688;23.256;2023-07-31T10:21:48;3.28;;;2.80;;
20298;SDS011;10308;42.688;23.256;2023-07-31T10:24:16;3.10;;;2.80;;
20298;SDS011;10308;42.688;23.256;2023-07-31T10:26:44;3.40;;;3.10;;
20298;SDS011;10308;42.688;23.256;2023-07-31T10:29:14;2.80;;;2.60;;
20298;SDS011;10308;42.688;23.256;2023-07-31T10:31:44;2.85;;;2.65;;
20298;SDS011;10308;42.688;23.256;2023-07-31T10:34:13;2.75;;;2.55;;
20298;SDS011;10308;42.688;23.256;2023-07-31T10:36:42;3.60;;;2.75;;
20298;SDS011;10308;42.688;23.256;2023-07-31T10:42:13;2.80;;;2.60;;
20298;SDS011;10308;42.688;23.256;2023-07-31T10:44:51;3.42;;;2.75;;
20298;SDS011;10308;42.688;23.256;2023-07-31T10:47:25;2.35;;;2.22;;
20298;SDS011;10308;42.688;23.256;2023-07-31T10:52:44;3.10;;;2.80;;
20298;SDS011;10308;42.688;23.256;2023-07-31T10:55:28;3.17;;;2.97;;
20298;SDS011;10308;42.688;23.256;2023-07-31T10:57:56;2.58;;;2.38;;
20298;SDS011;10308;42.688;23.256;2023-07-31T11:00:28;2.72;;;2.53;;
20298;SDS011;10308;42.688;23.256;2023-07-31T11:02:57;3.00;;;2.70;;
20298;SDS011;10308;42.688;23.256;2023-07-31T11:05:40;2.50;;;2.30;;
20298;SDS011;10308;42.688;23.256;2023-07-31T11:08:21;2.50;;;2.35;;
20298;SDS011;10308;42.688;23.256;2023-07-31T11:10:51;2.60;;;2.40;;
20298;SDS011;10308;42.688;23.256;2023-07-31T12:15:42;7.50;;;6.90;;
20298;SDS011;10308;42.688;23.256;2023-07-31T12:18:12;6.50;;;5.90;;
20298;SDS011;10308;42.688;23.256;2023-07-31T12:20:45;6.35;;;5.82;;
20298;SDS011;10308;42.688;23.256;2023-07-31T12:23:17;6.53;;;5.93;;
20298;SDS011;10308;42.688;23.256;2023-07-31T12:25:59;5.88;;;5.40;;
20298;SDS011;10308;42.688;23.256;2023-07-31T12:28:38;6.60;;;6.00;;
20298;SDS011;10308;42.688;23.256;2023-07-31T12:31:12;5.75;;;5.25;;
20298;SDS011;10308;42.688;23.256;2023-07-31T12:33:43;5.70;;;5.30;;
20298;SDS011;10308;42.688;23.256;2023-07-31T12:36:12;5.75;;;5.30;;
20298;SDS011;10308;42.688;23.256;2023-07-31T12:38:44;5.60;;;5.00;;
20298;SDS011;10308;42.688;23.256;2023-07-31T12:41:15;5.85;;;5.35;;
20298;SDS011;10308;42.688;23.256;2023-07-31T12:43:42;5.47;;;5.07;;
20298;SDS011;10308;42.688;23.256;2023-07-31T12:46:14;5.85;;;5.35;;
20298;SDS011;10308;42.688;23.256;2023-07-31T12:48:43;6.10;;;5.50;;
20298;SDS011;10308;42.688;23.256;2023-07-31T12:51:14;6.70;;;6.10;;
20298;SDS011;10308;42.688;23.256;2023-07-31T12:53:42;6.10;;;5.50;;
20298;SDS011;10308;42.688;23.256;2023-07-31T12:56:09;6.07;;;5.57;;
20298;SDS011;10308;42.688;23.256;2023-07-31T12:58:37;5.32;;;4.93;;
20298;SDS011;10308;42.688;23.256;2023-07-31T13:01:05;5.82;;;5.43;;
20298;SDS011;10308;42.688;23.256;2023-07-31T13:03:33;5.78;;;5.25;;
20298;SDS011;10308;42.688;23.256;2023-07-31T13:06:01;6.28;;;5.78;;
20298;SDS011;10308;42.688;23.256;2023-07-31T13:08:28;6.57;;;6.07;;
20298;SDS011;10308;42.688;23.256;2023-07-31T13:10:56;6.63;;;6.07;;
20298;SDS011;10308;42.688;23.256;2023-07-31T13:13:24;6.75;;;6.18;;
20298;SDS011;10308;42.688;23.256;2023-07-31T13:15:52;6.97;;;6.47;;
20298;SDS011;10308;42.688;23.256;2023-07-31T13:18:20;5.78;;;5.38;;
20298;SDS011;10308;42.688;23.256;2023-07-31T13:20:51;6.43;;;5.93;;
20298;SDS011;10308;42.688;23.256;2023-07-31T13:23:17;6.47;;;5.88;;
20298;SDS011;10308;42.688;23.256;2023-07-31T13:25:46;5.80;;;5.40;;
20298;SDS011;10308;42.688;23.256;2023-07-31T13:28:12;5.25;;;4.85;;
20298;SDS011;10308;42.688;23.256;2023-07-31T13:30:39;5.85;;;5.00;;
20298;SDS011;10308;42.688;23.256;2023-07-31T13:33:10;5.55;;;5.05;;
20298;SDS011;10308;42.688;23.256;2023-07-31T13:35:38;5.65;;;5.15;;
20298;SDS011;10308;42.688;23.256;2023-07-31T13:38:14;5.40;;;5.00;;
20298;SDS011;10308;42.688;23.256;2023-07-31T13:40:46;5.30;;;4.90;;
20298;SDS011;10308;42.688;23.256;2023-07-31T13:43:14;6.40;;;5.70;;
20298;SDS011;10308;42.688;23.256;2023-07-31T13:45:43;5.40;;;5.00;;
20298;SDS011;10308;42.688;23.256;2023-07-31T13:48:12;5.45;;;4.95;;
20298;SDS011;10308;42.688;23.256;2023-07-31T13:50:40;5.47;;;5.07;;
20298;SDS011;10308;42.688;23.256;2023-07-31T13:53:07;5.75;;;4.80;;
20298;SDS011;10308;42.688;23.256;2023-07-31T13:55:39;5.70;;;5.30;;
20298;SDS011;10308;42.688;23.256;2023-07-31T13:58:07;5.00;;;4.60;;
20298;SDS011;10308;42.688;23.256;2023-07-31T14:00:35;5.18;;;4.68;;
20298;SDS011;10308;42.688;23.256;2023-07-31T14:03:03;5.32;;;4.88;;
20298;SDS011;10308;42.688;23.256;2023-07-31T14:05:30;5.30;;;4.80;;
20298;SDS011;10308;42.688;23.256;2023-07-31T14:07:58;5.93;;;5.30;;
20298;SDS011;10308;42.688;23.256;2023-07-31T14:10:28;4.72;;;4.43;;
20298;SDS011;10308;42.688;23.256;2023-07-31T14:13:01;5.70;;;4.38;;
20298;SDS011;10308;42.688;23.256;2023-07-31T14:15:29;6.53;;;5.00;;
20298;SDS011;10308;42.688;23.256;2023-07-31T14:17:59;5.15;;;4.65;;
20298;SDS011;10308;42.688;23.256;2023-07-31T14:20:26;5.45;;;4.95;;
20298;SDS011;10308;42.688;23.256;2023-07-31T14:22:55;5.28;;;4.78;;
20298;SDS011;10308;42.688;23.256;2023-07-31T14:25:23;5.50;;;4.70;;
20298;SDS011;10308;42.688;23.256;2023-07-31T14:27:51;4.72;;;4.43;;
20298;SDS011;10308;42.688;23.256;2023-07-31T14:30:21;4.30;;;4.00;;
20298;SDS011;10308;42.688;23.256;2023-07-31T14:32:49;4.95;;;4.57;;
20298;SDS011;10308;42.688;23.256;2023-07-31T14:35:16;4.72;;;4.32;;
20298;SDS011;10308;42.688;23.256;2023-07-31T14:37:47;5.53;;;4.85;;
20298;SDS011;10308;42.688;23.256;2023-07-31T14:40:14;5.78;;;5.13;;
20298;SDS011;10308;42.688;23.256;2023-07-31T14:42:45;6.53;;;4.85;;
20298;SDS011;10308;42.688;23.256;2023-07-31T14:45:15;4.72;;;4.32;;
20298;SDS011;10308;42.688;23.256;2023-07-31T14:47:50;4.50;;;4.20;;
20298;SDS011;10308;42.688;23.256;2023-07-31T14:50:21;4.93;;;4.53;;
20298;SDS011;10308;42.688;23.256;2023-07-31T14:52:51;4.50;;;4.18;;
20298;SDS011;10308;42.688;23.256;2023-07-31T14:55:19;4.78;;;4.38;;
20298;SDS011;10308;42.688;23.256;2023-07-31T14:57:48;4.85;;;4.35;;
20298;SDS011;10308;42.688;23.256;2023-07-31T15:00:18;4.80;;;4.40;;
20298;SDS011;10308;42.688;23.256;2023-07-31T15:02:47;4.28;;;3.97;;
20298;SDS011;10308;42.688;23.256;2023-07-31T15:05:17;4.18;;;3.80;;
20298;SDS011;10308;42.688;23.256;2023-07-31T15:07:48;5.63;;;4.28;;
20298;SDS011;10308;42.688;23.256;2023-07-31T15:10:18;5.25;;;4.28;;
20298;SDS011;10308;42.688;23.256;2023-07-31T15:12:46;4.35;;;3.90;;
20298;SDS011;10308;42.688;23.256;2023-07-31T15:15:15;4.13;;;3.70;;
20298;SDS011;10308;42.688;23.256;2023-07-31T15:17:42;4.00;;;3.70;;
20298;SDS011;10308;42.688;23.256;2023-07-31T15:20:17;4.97;;;3.97;;
20298;SDS011;10308;42.688;23.256;2023-07-31T15:22:45;4.50;;;3.70;;
20298;SDS011;10308;42.688;23.256;2023-07-31T15:25:15;3.63;;;3.28;;
20298;SDS011;10308;42.688;23.256;2023-07-31T15:27:44;3.75;;;3.30;;
20298;SDS011;10308;42.688;23.256;2023-07-31T15:30:14;3.42;;;3.13;;
20298;SDS011;10308;42.688;23.256;2023-07-31T15:32:41;3.83;;;3.40;;
20298;SDS011;10308;42.688;23.256;2023-07-31T15:35:18;3.80;;;2.67;;
20298;SDS011;10308;42.688;23.256;2023-07-31T15:37:45;3.13;;;2.83;;
20298;SDS011;10308;42.688;23.256;2023-07-31T15:40:15;2.97;;;2.78;;
20298;SDS011;10308;42.688;23.256;2023-07-31T15:42:43;5.30;;;3.20;;
20298;SDS011;10308;42.688;23.256;2023-07-31T15:45:13;3.42;;;3.10;;
20298;SDS011;10308;42.688;23.256;2023-07-31T15:47:44;3.53;;;3.30;;
20298;SDS011;10308;42.688;23.256;2023-07-31T15:50:11;4.03;;;3.72;;
20298;SDS011;10308;42.688;23.256;2023-07-31T15:52:42;3.15;;;2.83;;
20298;SDS011;10308;42.688;23.256;2023-07-31T15:55:12;2.70;;;2.50;;
20298;SDS011;10308;42.688;23.256;2023-07-31T15:57:44;2.92;;;2.70;;
20298;SDS011;10308;42.688;23.256;2023-07-31T16:00:11;3.20;;;2.97;;
20298;SDS011;10308;42.688;23.256;2023-07-31T16:02:40;3.10;;;2.67;;
20298;SDS011;10308;42.688;23.256;2023-07-31T16:05:11;2.58;;;2.38;;
20298;SDS011;10308;42.688;23.256;2023-07-31T16:07:43;2.45;;;2.25;;
20298;SDS011;10308;42.688;23.256;2023-07-31T16:10:11;2.42;;;2.33;;
20298;SDS011;10308;42.688;23.256;2023-07-31T16:12:42;2.63;;;2.30;;
20298;SDS011;10308;42.688;23.256;2023-07-31T16:15:09;3.42;;;2.35;;
20298;SDS011;10308;42.688;23.256;2023-07-31T16:17:40;4.22;;;2.60;;
20298;SDS011;10308;42.688;23.256;2023-07-31T16:20:07;3.42;;;2.50;;
20298;SDS011;10308;42.688;23.256;2023-07-31T16:22:40;3.00;;;2.58;;
20298;SDS011;10308;42.688;23.256;2023-07-31T16:25:09;2.42;;;2.22;;
20298;SDS011;10308;42.688;23.256;2023-07-31T16:27:36;5.82;;;2.55;;
20298;SDS011;10308;42.688;23.256;2023-07-31T16:30:03;3.13;;;2.40;;
20298;SDS011;10308;42.688;23.256;2023-07-31T16:32:32;3.65;;;2.60;;
20298;SDS011;10308;42.688;23.256;2023-07-31T16:35:00;3.78;;;3.47;;
20298;SDS011;10308;42.688;23.256;2023-07-31T16:37:33;2.97;;;2.72;;
20298;SDS011;10308;42.688;23.256;2023-07-31T16:40:10;2.75;;;2.55;;
20298;SDS011;10308;42.688;23.256;2023-07-31T16:42:40;2.60;;;2.40;;
20298;SDS011;10308;42.688;23.256;2023-07-31T16:45:10;2.80;;;2.60;;
20298;SDS011;10308;42.688;23.256;2023-07-31T16:47:38;3.00;;;2.80;;
20298;SDS011;10308;42.688;23.256;2023-07-31T16:50:06;2.60;;;2.40;;
20298;SDS011;10308;42.688;23.256;2023-07-31T16:52:34;2.58;;;2.38;;
20298;SDS011;10308;42.688;23.256;2023-07-31T16:55:03;2.92;;;2.67;;